createdAt,value
2023-05-21T00:00:00.559Z,101515
2023-05-21T00:01:00.767Z,101502
2023-05-21T00:02:00.555Z,101502
2023-05-21T00:03:00.584Z,101502
2023-05-21T00:04:00.704Z,101502
2023-05-21T00:05:00.570Z,101502
2023-05-21T00:06:00.937Z,101501
2023-05-21T00:07:00.518Z,101501
2023-05-21T00:08:00.549Z,101501
2023-05-21T00:09:02.094Z,101501
2023-05-21T00:10:00.528Z,101501
2023-05-21T00:11:00.514Z,101503
2023-05-21T00:12:00.610Z,101503
2023-05-21T00:13:00.515Z,101503
2023-05-21T00:14:00.528Z,101503
2023-05-21T00:15:00.540Z,101503
2023-05-21T00:16:00.696Z,101497
2023-05-21T00:17:00.603Z,101497
2023-05-21T00:18:00.553Z,101497
2023-05-21T00:19:00.595Z,101497
2023-05-21T00:20:00.574Z,101497
2023-05-21T00:21:00.537Z,101493
2023-05-21T00:22:00.598Z,101493
2023-05-21T00:23:00.535Z,101493
2023-05-21T00:24:00.521Z,101493
2023-05-21T00:25:00.625Z,101493
2023-05-21T00:26:00.523Z,101484
2023-05-21T00:27:00.555Z,101484
2023-05-21T00:28:00.551Z,101484
2023-05-21T00:29:00.592Z,101484
2023-05-21T00:30:00.593Z,101484
2023-05-21T00:31:00.558Z,101487
2023-05-21T00:32:00.537Z,101487
2023-05-21T00:33:00.560Z,101487
2023-05-21T00:34:00.514Z,101487
2023-05-21T00:35:00.527Z,101487
2023-05-21T00:36:00.519Z,101488
2023-05-21T00:37:00.521Z,101488
2023-05-21T00:38:00.819Z,101488
2023-05-21T00:39:00.516Z,101488
2023-05-21T00:40:00.943Z,101488
2023-05-21T00:41:01.883Z,101495
2023-05-21T00:42:00.514Z,101495
2023-05-21T00:43:00.512Z,101495
2023-05-21T00:44:00.518Z,101495
2023-05-21T00:45:00.565Z,101495
2023-05-21T00:46:00.568Z,101492
2023-05-21T00:47:01.213Z,101492
2023-05-21T00:48:00.773Z,101492
2023-05-21T00:49:00.552Z,101492
2023-05-21T00:50:01.593Z,101492
2023-05-21T00:51:00.590Z,101493
2023-05-21T00:52:00.564Z,101493
2023-05-21T00:53:00.556Z,101493
2023-05-21T00:54:00.664Z,101493
2023-05-21T00:55:00.557Z,101493
2023-05-21T00:56:01.064Z,101489
2023-05-21T00:57:01.440Z,101489
2023-05-21T00:58:00.529Z,101489
2023-05-21T00:59:00.551Z,101489
2023-05-21T01:00:00.592Z,101489
2023-05-21T01:01:00.588Z,101485
2023-05-21T01:02:00.519Z,101485
2023-05-21T01:03:00.920Z,101485
2023-05-21T01:04:00.537Z,101485
2023-05-21T01:05:00.509Z,101485
2023-05-21T01:06:00.550Z,101483
2023-05-21T01:07:00.550Z,101483
2023-05-21T01:08:00.860Z,101483
2023-05-21T01:09:02.460Z,101483
2023-05-21T01:10:02.020Z,101483
2023-05-21T01:11:01.269Z,101477
2023-05-21T01:12:00.579Z,101477
2023-05-21T01:13:00.917Z,101477
2023-05-21T01:14:00.909Z,101477
2023-05-21T01:15:01.511Z,101477
2023-05-21T01:16:00.816Z,101473
2023-05-21T01:17:01.245Z,101473
2023-05-21T01:18:00.604Z,101473
2023-05-21T01:19:00.885Z,101473
2023-05-21T01:20:00.555Z,101473
2023-05-21T01:21:01.176Z,101476
2023-05-21T01:22:03.138Z,101476
2023-05-21T01:23:00.956Z,101476
2023-05-21T01:24:01.227Z,101476
2023-05-21T01:25:00.548Z,101476
2023-05-21T01:26:00.745Z,101485
2023-05-21T01:27:00.953Z,101485
2023-05-21T01:28:00.506Z,101485
2023-05-21T01:29:00.556Z,101485
2023-05-21T01:30:00.930Z,101485
2023-05-21T01:31:05.560Z,101493
2023-05-21T01:32:01.496Z,101493
2023-05-21T01:33:03.893Z,101493
2023-05-21T01:34:03.947Z,101493
2023-05-21T01:35:04.655Z,101493
2023-05-21T01:36:03.358Z,101494
2023-05-21T01:37:10.368Z,101494
2023-05-21T01:38:10.390Z,101494
2023-05-21T01:39:10.372Z,101494
2023-05-21T01:40:04.649Z,101494
2023-05-21T01:41:02.540Z,101495
2023-05-21T01:42:02.399Z,101495
2023-05-21T01:43:01.310Z,101495
2023-05-21T01:44:01.212Z,101495
2023-05-21T01:45:02.102Z,101495
2023-05-21T01:46:01.044Z,101504
2023-05-21T01:47:01.369Z,101504
2023-05-21T01:48:01.624Z,101504
2023-05-21T01:49:00.904Z,101504
2023-05-21T01:50:01.281Z,101504
2023-05-21T01:51:02.187Z,101496
2023-05-21T01:52:00.542Z,101496
2023-05-21T01:53:00.607Z,101496
2023-05-21T01:54:00.797Z,101496
2023-05-21T01:55:00.580Z,101496
2023-05-21T01:56:00.542Z,101493
2023-05-21T01:57:00.602Z,101493
2023-05-21T01:58:02.361Z,101493
2023-05-21T01:59:00.616Z,101493
2023-05-21T02:00:00.584Z,101493
2023-05-21T02:01:00.556Z,101490
2023-05-21T02:02:00.580Z,101490
2023-05-21T02:03:00.749Z,101490
2023-05-21T02:04:00.715Z,101490
2023-05-21T02:05:00.556Z,101490
2023-05-21T02:06:00.517Z,101476
2023-05-21T02:07:00.514Z,101476
2023-05-21T02:08:00.581Z,101476
2023-05-21T02:09:00.842Z,101476
2023-05-21T02:10:00.530Z,101476
2023-05-21T02:11:00.509Z,101474
2023-05-21T02:12:01.245Z,101474
2023-05-21T02:13:00.577Z,101474
2023-05-21T02:14:00.564Z,101474
2023-05-21T02:15:00.660Z,101474
2023-05-21T02:16:00.546Z,101470
2023-05-21T02:17:00.531Z,101470
2023-05-21T02:18:00.679Z,101470
2023-05-21T02:19:00.644Z,101470
2023-05-21T02:20:01.015Z,101470
2023-05-21T02:21:00.564Z,101471
2023-05-21T02:22:00.542Z,101471
2023-05-21T02:23:00.669Z,101471
2023-05-21T02:24:00.537Z,101471
2023-05-21T02:25:00.538Z,101471
2023-05-21T02:26:00.569Z,101469
2023-05-21T02:27:00.523Z,101469
2023-05-21T02:28:00.523Z,101469
2023-05-21T02:29:00.535Z,101469
2023-05-21T02:30:00.935Z,101469
2023-05-21T02:31:00.521Z,101475
2023-05-21T02:32:00.615Z,101475
2023-05-21T02:33:00.607Z,101475
2023-05-21T02:34:00.733Z,101475
2023-05-21T02:35:01.591Z,101475
2023-05-21T02:36:00.515Z,101473
2023-05-21T02:37:00.531Z,101473
2023-05-21T02:38:00.532Z,101473
2023-05-21T02:39:00.559Z,101473
2023-05-21T02:40:02.179Z,101473
2023-05-21T02:41:00.532Z,101471
2023-05-21T02:42:00.574Z,101471
2023-05-21T02:43:00.549Z,101471
2023-05-21T02:44:00.530Z,101471
2023-05-21T02:45:00.539Z,101471
2023-05-21T02:46:00.596Z,101467
2023-05-21T02:47:00.523Z,101467
2023-05-21T02:48:00.542Z,101467
2023-05-21T02:49:00.665Z,101467
2023-05-21T02:50:00.514Z,101467
2023-05-21T02:51:00.520Z,101464
2023-05-21T02:52:00.573Z,101464
2023-05-21T02:53:00.520Z,101464
2023-05-21T02:54:00.554Z,101464
2023-05-21T02:55:00.511Z,101464
2023-05-21T02:56:00.534Z,101460
2023-05-21T02:57:00.510Z,101460
2023-05-21T02:58:00.533Z,101460
2023-05-21T02:59:00.542Z,101460
2023-05-21T03:00:00.593Z,101460
2023-05-21T03:01:00.560Z,101460
2023-05-21T03:02:00.549Z,101460
2023-05-21T03:03:00.624Z,101460
2023-05-21T03:04:00.539Z,101460
2023-05-21T03:05:00.516Z,101460
2023-05-21T03:06:00.527Z,101458
2023-05-21T03:07:00.623Z,101458
2023-05-21T03:08:00.517Z,101458
2023-05-21T03:09:00.550Z,101458
2023-05-21T03:10:00.569Z,101458
2023-05-21T03:11:00.553Z,101459
2023-05-21T03:12:00.572Z,101459
2023-05-21T03:13:00.540Z,101459
2023-05-21T03:14:00.515Z,101459
2023-05-21T03:15:00.531Z,101459
2023-05-21T03:16:00.514Z,101465
2023-05-21T03:17:00.706Z,101465
2023-05-21T03:18:00.586Z,101465
2023-05-21T03:19:00.575Z,101465
2023-05-21T03:20:00.577Z,101465
2023-05-21T03:21:00.512Z,101462
2023-05-21T03:22:01.020Z,101462
2023-05-21T03:23:00.571Z,101462
2023-05-21T03:24:01.092Z,101462
2023-05-21T03:25:00.528Z,101462
2023-05-21T03:26:00.520Z,101460
2023-05-21T03:27:00.554Z,101460
2023-05-21T03:28:00.559Z,101460
2023-05-21T03:29:00.519Z,101460
2023-05-21T03:30:00.517Z,101460
2023-05-21T03:31:00.618Z,101466
2023-05-21T03:32:00.661Z,101466
2023-05-21T03:33:00.638Z,101466
2023-05-21T03:34:00.564Z,101466
2023-05-21T03:35:00.530Z,101466
2023-05-21T03:36:00.535Z,101461
2023-05-21T03:37:00.564Z,101461
2023-05-21T03:38:00.524Z,101461
2023-05-21T03:39:00.518Z,101461
2023-05-21T03:40:00.591Z,101461
2023-05-21T03:41:00.535Z,101461
2023-05-21T03:42:00.530Z,101461
2023-05-21T03:43:00.505Z,101461
2023-05-21T03:44:00.524Z,101461
2023-05-21T03:45:00.579Z,101461
2023-05-21T03:46:00.589Z,101471
2023-05-21T03:47:00.515Z,101471
2023-05-21T03:48:00.573Z,101471
2023-05-21T03:49:00.534Z,101471
2023-05-21T03:50:00.700Z,101471
2023-05-21T03:51:00.530Z,101469
2023-05-21T03:52:00.527Z,101469
2023-05-21T03:53:00.534Z,101469
2023-05-21T03:54:00.526Z,101469
2023-05-21T03:55:00.570Z,101469
2023-05-21T03:56:00.520Z,101469
2023-05-21T03:57:00.523Z,101469
2023-05-21T03:58:00.576Z,101469
2023-05-21T03:59:00.524Z,101469
2023-05-21T04:00:00.558Z,101469
2023-05-21T04:01:00.530Z,101465
2023-05-21T04:02:00.564Z,101465
2023-05-21T04:03:00.607Z,101465
2023-05-21T04:04:00.805Z,101465
2023-05-21T04:05:00.555Z,101465
2023-05-21T04:06:01.131Z,101459
2023-05-21T04:07:00.527Z,101459
2023-05-21T04:08:00.516Z,101459
2023-05-21T04:09:00.554Z,101459
2023-05-21T04:10:00.520Z,101459
2023-05-21T04:11:00.521Z,101458
2023-05-21T04:12:00.544Z,101458
2023-05-21T04:13:00.519Z,101458
2023-05-21T04:14:00.534Z,101458
2023-05-21T04:15:00.524Z,101458
2023-05-21T04:16:00.584Z,101457
2023-05-21T04:17:00.544Z,101457
2023-05-21T04:18:00.647Z,101457
2023-05-21T04:19:00.575Z,101457
2023-05-21T04:20:00.573Z,101457
2023-05-21T04:21:00.528Z,101460
2023-05-21T04:22:00.516Z,101460
2023-05-21T04:23:00.549Z,101460
2023-05-21T04:24:00.587Z,101460
2023-05-21T04:25:00.527Z,101460
2023-05-21T04:26:00.526Z,101457
2023-05-21T04:27:00.528Z,101457
2023-05-21T04:28:00.549Z,101457
2023-05-21T04:29:00.514Z,101457
2023-05-21T04:30:00.557Z,101457
2023-05-21T04:31:00.619Z,101460
2023-05-21T04:32:00.538Z,101460
2023-05-21T04:33:01.864Z,101460
2023-05-21T04:34:00.511Z,101460
2023-05-21T04:35:00.515Z,101460
2023-05-21T04:36:00.608Z,101464
2023-05-21T04:37:00.515Z,101464
2023-05-21T04:38:02.303Z,101464
2023-05-21T04:39:00.588Z,101464
2023-05-21T04:40:00.593Z,101464
2023-05-21T04:41:00.528Z,101456
2023-05-21T04:42:00.765Z,101456
2023-05-21T04:43:00.574Z,101456
2023-05-21T04:44:00.572Z,101456
2023-05-21T04:45:00.620Z,101456
2023-05-21T04:46:00.521Z,101457
2023-05-21T04:47:00.678Z,101457
2023-05-21T04:48:00.815Z,101457
2023-05-21T04:49:01.750Z,101457
2023-05-21T04:50:01.133Z,101457
2023-05-21T04:51:00.524Z,101455
2023-05-21T04:52:00.813Z,101455
2023-05-21T04:53:01.185Z,101455
2023-05-21T04:54:00.569Z,101455
2023-05-21T04:55:00.584Z,101455
2023-05-21T04:56:00.579Z,101448
2023-05-21T04:57:00.534Z,101448
2023-05-21T04:58:00.527Z,101448
2023-05-21T04:59:00.522Z,101448
2023-05-21T05:00:00.798Z,101448
2023-05-21T05:01:00.572Z,101444
2023-05-21T05:02:00.550Z,101444
2023-05-21T05:03:00.604Z,101444
2023-05-21T05:04:00.610Z,101444
2023-05-21T05:05:00.523Z,101444
2023-05-21T05:06:00.517Z,101442
2023-05-21T05:07:00.571Z,101442
2023-05-21T05:08:00.535Z,101442
2023-05-21T05:09:00.527Z,101442
2023-05-21T05:10:00.532Z,101442
2023-05-21T05:11:00.561Z,101450
2023-05-21T05:12:00.562Z,101450
2023-05-21T05:13:00.524Z,101450
2023-05-21T05:14:00.551Z,101450
2023-05-21T05:15:00.509Z,101450
2023-05-21T05:16:00.552Z,101451
2023-05-21T05:17:00.725Z,101451
2023-05-21T05:18:00.714Z,101451
2023-05-21T05:19:00.613Z,101451
2023-05-21T05:20:00.561Z,101451
2023-05-21T05:21:00.521Z,101453
2023-05-21T05:22:00.550Z,101453
2023-05-21T05:23:00.560Z,101453
2023-05-21T05:24:00.547Z,101453
2023-05-21T05:25:00.578Z,101453
2023-05-21T05:26:00.564Z,101450
2023-05-21T05:27:00.530Z,101450
2023-05-21T05:28:00.528Z,101450
2023-05-21T05:29:00.573Z,101450
2023-05-21T05:30:00.520Z,101450
2023-05-21T05:31:00.575Z,101447
2023-05-21T05:32:00.513Z,101447
2023-05-21T05:33:00.547Z,101447
2023-05-21T05:34:00.522Z,101447
2023-05-21T05:35:02.580Z,101447
2023-05-21T05:36:00.522Z,101434
2023-05-21T05:37:00.577Z,101434
2023-05-21T05:38:00.519Z,101434
2023-05-21T05:39:00.529Z,101434
2023-05-21T05:40:00.796Z,101434
2023-05-21T05:41:00.528Z,101423
2023-05-21T05:42:00.521Z,101423
2023-05-21T05:43:00.538Z,101423
2023-05-21T05:44:00.531Z,101423
2023-05-21T05:45:00.568Z,101423
2023-05-21T05:46:00.611Z,101430
2023-05-21T05:47:00.524Z,101430
2023-05-21T05:48:00.626Z,101430
2023-05-21T05:49:00.525Z,101430
2023-05-21T05:50:00.589Z,101430
2023-05-21T05:51:00.602Z,101431
2023-05-21T05:52:00.518Z,101431
2023-05-21T05:53:00.559Z,101431
2023-05-21T05:54:00.557Z,101431
2023-05-21T05:55:00.522Z,101431
2023-05-21T05:56:00.590Z,101436
2023-05-21T05:57:00.557Z,101436
2023-05-21T05:58:00.514Z,101436
2023-05-21T05:59:00.580Z,101436
2023-05-21T06:00:00.600Z,101436
2023-05-21T06:01:00.575Z,101441
2023-05-21T06:02:00.520Z,101441
2023-05-21T06:03:00.932Z,101441
2023-05-21T06:04:00.524Z,101441
2023-05-21T06:05:00.561Z,101441
2023-05-21T06:06:00.558Z,101432
2023-05-21T06:07:00.569Z,101432
2023-05-21T06:08:00.525Z,101432
2023-05-21T06:09:00.544Z,101432
2023-05-21T06:10:00.567Z,101432
2023-05-21T06:11:00.542Z,101437
2023-05-21T06:12:00.587Z,101437
2023-05-21T06:13:00.530Z,101437
2023-05-21T06:14:00.526Z,101437
2023-05-21T06:15:00.576Z,101437
2023-05-21T06:16:00.611Z,101444
2023-05-21T06:17:00.556Z,101444
2023-05-21T06:18:00.604Z,101444
2023-05-21T06:19:00.569Z,101444
2023-05-21T06:20:00.529Z,101444
2023-05-21T06:21:00.566Z,101448
2023-05-21T06:22:00.521Z,101448
2023-05-21T06:23:00.523Z,101448
2023-05-21T06:24:00.519Z,101448
2023-05-21T06:25:00.518Z,101448
2023-05-21T06:26:00.541Z,101442
2023-05-21T06:27:00.522Z,101442
2023-05-21T06:28:00.547Z,101442
2023-05-21T06:29:00.562Z,101442
2023-05-21T06:30:00.564Z,101442
2023-05-21T06:31:00.516Z,101442
2023-05-21T06:32:00.525Z,101442
2023-05-21T06:33:00.644Z,101442
2023-05-21T06:34:00.863Z,101442
2023-05-21T06:35:00.570Z,101442
2023-05-21T06:36:00.520Z,101448
2023-05-21T06:37:00.524Z,101448
2023-05-21T06:38:00.528Z,101448
2023-05-21T06:39:00.551Z,101448
2023-05-21T06:40:00.624Z,101448
2023-05-21T06:41:01.028Z,101446
2023-05-21T06:42:00.530Z,101446
2023-05-21T06:43:00.554Z,101446
2023-05-21T06:44:00.581Z,101446
2023-05-21T06:45:00.651Z,101446
2023-05-21T06:46:00.584Z,101450
2023-05-21T06:47:00.529Z,101450
2023-05-21T06:48:00.618Z,101450
2023-05-21T06:49:00.570Z,101450
2023-05-21T06:50:00.544Z,101450
2023-05-21T06:51:00.528Z,101446
2023-05-21T06:52:00.554Z,101446
2023-05-21T06:53:00.556Z,101446
2023-05-21T06:54:00.543Z,101446
2023-05-21T06:55:00.522Z,101446
2023-05-21T06:56:00.542Z,101438
2023-05-21T06:57:00.542Z,101438
2023-05-21T06:58:00.515Z,101438
2023-05-21T06:59:00.548Z,101438
2023-05-21T07:00:00.547Z,101438
2023-05-21T07:01:00.579Z,101439
2023-05-21T07:02:02.391Z,101439
2023-05-21T07:03:00.650Z,101439
2023-05-21T07:04:00.547Z,101439
2023-05-21T07:05:00.559Z,101439
2023-05-21T07:06:00.614Z,101439
2023-05-21T07:07:00.813Z,101439
2023-05-21T07:08:00.534Z,101439
2023-05-21T07:09:00.927Z,101439
2023-05-21T07:10:00.551Z,101439
2023-05-21T07:11:00.534Z,101435
2023-05-21T07:12:00.545Z,101435
2023-05-21T07:13:00.539Z,101435
2023-05-21T07:14:00.564Z,101435
2023-05-21T07:15:00.566Z,101435
2023-05-21T07:16:00.576Z,101435
2023-05-21T07:17:00.666Z,101435
2023-05-21T07:18:00.594Z,101435
2023-05-21T07:19:00.584Z,101435
2023-05-21T07:20:00.589Z,101435
2023-05-21T07:21:00.521Z,101433
2023-05-21T07:22:00.601Z,101433
2023-05-21T07:23:00.561Z,101433
2023-05-21T07:24:00.641Z,101433
2023-05-21T07:25:00.570Z,101433
2023-05-21T07:26:00.678Z,101435
2023-05-21T07:27:01.898Z,101435
2023-05-21T07:28:00.590Z,101435
2023-05-21T07:29:00.572Z,101435
2023-05-21T07:30:00.662Z,101435
2023-05-21T07:31:00.635Z,101430
2023-05-21T07:32:01.046Z,101430
2023-05-21T07:33:00.571Z,101430
2023-05-21T07:34:00.532Z,101430
2023-05-21T07:35:00.566Z,101430
2023-05-21T07:36:00.577Z,101433
2023-05-21T07:37:00.565Z,101433
2023-05-21T07:38:00.621Z,101433
2023-05-21T07:39:00.578Z,101433
2023-05-21T07:40:00.664Z,101433
2023-05-21T07:41:00.620Z,101436
2023-05-21T07:42:00.551Z,101436
2023-05-21T07:43:00.593Z,101436
2023-05-21T07:44:00.621Z,101436
2023-05-21T07:45:00.533Z,101436
2023-05-21T07:46:00.723Z,101434
2023-05-21T07:47:00.518Z,101434
2023-05-21T07:48:00.590Z,101434
2023-05-21T07:49:00.562Z,101434
2023-05-21T07:50:00.599Z,101434
2023-05-21T07:51:00.596Z,101434
2023-05-21T07:52:00.565Z,101434
2023-05-21T07:53:00.576Z,101434
2023-05-21T07:54:00.538Z,101434
2023-05-21T07:55:00.810Z,101434
2023-05-21T07:56:00.595Z,101439
2023-05-21T07:57:00.521Z,101439
2023-05-21T07:58:00.588Z,101439
2023-05-21T07:59:00.515Z,101439
2023-05-21T08:00:00.538Z,101439
2023-05-21T08:01:00.577Z,101434
2023-05-21T08:02:00.517Z,101434
2023-05-21T08:03:00.651Z,101434
2023-05-21T08:04:00.737Z,101434
2023-05-21T08:05:00.569Z,101434
2023-05-21T08:06:00.526Z,101436
2023-05-21T08:07:00.528Z,101436
2023-05-21T08:08:00.563Z,101436
2023-05-21T08:09:00.636Z,101436
2023-05-21T08:10:02.310Z,101436
2023-05-21T08:11:00.539Z,101422
2023-05-21T08:12:00.641Z,101422
2023-05-21T08:13:00.483Z,101422
2023-05-21T08:14:00.562Z,101422
2023-05-21T08:15:00.620Z,101422
2023-05-21T08:16:00.608Z,101427
2023-05-21T08:17:00.554Z,101427
2023-05-21T08:18:00.688Z,101427
2023-05-21T08:19:00.650Z,101427
2023-05-21T08:20:00.583Z,101427
2023-05-21T08:21:00.522Z,101427
2023-05-21T08:22:00.522Z,101427
2023-05-21T08:23:00.650Z,101427
2023-05-21T08:24:00.525Z,101427
2023-05-21T08:25:00.541Z,101427
2023-05-21T08:26:00.529Z,101422
2023-05-21T08:27:00.620Z,101422
2023-05-21T08:28:00.516Z,101422
2023-05-21T08:29:00.561Z,101422
2023-05-21T08:30:00.523Z,101422
2023-05-21T08:31:00.752Z,101424
2023-05-21T08:32:00.706Z,101424
2023-05-21T08:33:00.565Z,101424
2023-05-21T08:34:00.527Z,101424
2023-05-21T08:35:00.533Z,101424
2023-05-21T08:36:00.516Z,101413
2023-05-21T08:37:00.529Z,101413
2023-05-21T08:38:00.591Z,101413
2023-05-21T08:39:00.549Z,101413
2023-05-21T08:40:00.602Z,101413
2023-05-21T08:41:00.576Z,101423
2023-05-21T08:42:08.523Z,101423
2023-05-21T08:43:00.512Z,101423
2023-05-21T08:44:00.946Z,101423
2023-05-21T08:45:03.560Z,101423
2023-05-21T08:46:02.425Z,101413
2023-05-21T08:47:01.431Z,101413
2023-05-21T08:48:00.634Z,101413
2023-05-21T08:49:01.313Z,101413
2023-05-21T08:50:01.952Z,101413
2023-05-21T08:51:00.543Z,101425
2023-05-21T08:52:01.081Z,101425
2023-05-21T08:53:00.606Z,101425
2023-05-21T08:54:01.465Z,101425
2023-05-21T08:55:02.177Z,101425
2023-05-21T08:56:00.615Z,101426
2023-05-21T08:57:01.200Z,101426
2023-05-21T08:58:03.169Z,101426
2023-05-21T08:59:01.094Z,101426
2023-05-21T09:00:00.922Z,101426
2023-05-21T09:01:01.050Z,101424
2023-05-21T09:02:00.702Z,101424
2023-05-21T09:03:00.610Z,101424
2023-05-21T09:04:19.062Z,101424
2023-05-21T09:05:00.795Z,101424
2023-05-21T09:06:00.512Z,101427
2023-05-21T09:07:00.667Z,101427
2023-05-21T09:08:10.369Z,101427
2023-05-21T09:09:03.698Z,101427
2023-05-21T09:10:01.439Z,101427
2023-05-21T09:11:00.690Z,101431
2023-05-21T09:12:00.571Z,101431
2023-05-21T09:13:01.270Z,101431
2023-05-21T09:14:01.192Z,101431
2023-05-21T09:15:00.839Z,101431
2023-05-21T09:16:00.618Z,101429
2023-05-21T09:17:00.662Z,101429
2023-05-21T09:18:00.605Z,101429
2023-05-21T09:19:03.014Z,101429
2023-05-21T09:20:08.107Z,101429
2023-05-21T09:21:10.369Z,101426
2023-05-21T09:22:01.085Z,101426
2023-05-21T09:23:02.571Z,101426
2023-05-21T09:24:00.696Z,101426
2023-05-21T09:25:03.033Z,101426
2023-05-21T09:26:00.568Z,101433
2023-05-21T09:27:00.512Z,101433
2023-05-21T09:28:00.547Z,101433
2023-05-21T09:29:00.586Z,101433
2023-05-21T09:30:01.588Z,101433
2023-05-21T09:31:02.104Z,101428
2023-05-21T09:32:04.745Z,101428
2023-05-21T09:33:00.647Z,101428
2023-05-21T09:34:00.546Z,101428
2023-05-21T09:35:08.805Z,101428
2023-05-21T09:36:00.550Z,101412
2023-05-21T09:37:00.522Z,101412
2023-05-21T09:38:00.514Z,101412
2023-05-21T09:39:00.533Z,101412
2023-05-21T09:40:00.558Z,101412
2023-05-21T09:41:03.265Z,101413
2023-05-21T09:42:00.539Z,101413
2023-05-21T09:43:00.727Z,101413
2023-05-21T09:44:01.072Z,101413
2023-05-21T09:45:00.730Z,101413
2023-05-21T09:46:02.156Z,101411
2023-05-21T09:47:01.041Z,101411
2023-05-21T09:48:00.569Z,101411
2023-05-21T09:49:00.646Z,101411
2023-05-21T09:50:00.519Z,101411
2023-05-21T09:51:10.363Z,101411
2023-05-21T09:52:00.517Z,101411
2023-05-21T09:53:00.522Z,101411
2023-05-21T09:54:00.516Z,101411
2023-05-21T09:55:01.688Z,101411
2023-05-21T09:56:01.394Z,101415
2023-05-21T09:57:00.805Z,101415
2023-05-21T09:58:00.640Z,101415
2023-05-21T09:59:02.033Z,101415
2023-05-21T10:00:00.586Z,101415
2023-05-21T10:01:00.582Z,101408
2023-05-21T10:02:00.994Z,101408
2023-05-21T10:03:00.795Z,101408
2023-05-21T10:04:01.841Z,101408
2023-05-21T10:05:01.427Z,101408
2023-05-21T10:06:00.890Z,101403
2023-05-21T10:07:00.577Z,101403
2023-05-21T10:08:01.475Z,101403
2023-05-21T10:09:04.738Z,101403
2023-05-21T10:10:02.306Z,101403
2023-05-21T10:11:01.191Z,101397
2023-05-21T10:12:00.901Z,101397
2023-05-21T10:13:04.506Z,101397
2023-05-21T10:14:05.401Z,101397
2023-05-21T10:15:02.943Z,101397
2023-05-21T10:16:01.040Z,101394
2023-05-21T10:17:00.558Z,101394
2023-05-21T10:18:00.609Z,101394
2023-05-21T10:19:00.943Z,101394
2023-05-21T10:20:01.477Z,101394
2023-05-21T10:21:00.933Z,101394
2023-05-21T10:22:00.822Z,101394
2023-05-21T10:23:01.161Z,101394
2023-05-21T10:24:01.023Z,101394
2023-05-21T10:25:00.748Z,101394
2023-05-21T10:26:00.969Z,101403
2023-05-21T10:27:01.286Z,101403
2023-05-21T10:28:00.560Z,101403
2023-05-21T10:29:01.278Z,101403
2023-05-21T10:30:00.692Z,101403
2023-05-21T10:31:00.633Z,101390
2023-05-21T10:32:00.970Z,101390
2023-05-21T10:33:01.834Z,101390
2023-05-21T10:34:02.567Z,101390
2023-05-21T10:35:01.888Z,101390
2023-05-21T10:36:00.759Z,101389
2023-05-21T10:37:00.731Z,101389
2023-05-21T10:38:02.761Z,101389
2023-05-21T10:39:01.094Z,101389
2023-05-21T10:40:00.552Z,101389
2023-05-21T10:41:01.421Z,101387
2023-05-21T10:42:07.559Z,101387
2023-05-21T10:43:09.880Z,101387
2023-05-21T10:44:07.143Z,101387
2023-05-21T10:45:10.386Z,101387
2023-05-21T10:46:01.638Z,101402
2023-05-21T10:47:01.541Z,101402
2023-05-21T10:48:07.850Z,101402
2023-05-21T10:49:10.390Z,101402
2023-05-21T10:50:10.369Z,101402
2023-05-21T10:51:10.379Z,101390
2023-05-21T10:52:00.482Z,101390
2023-05-21T10:53:03.715Z,101390
2023-05-21T10:54:10.386Z,101390
2023-05-21T10:55:10.401Z,101390
2023-05-21T10:56:01.445Z,101385
2023-05-21T10:57:08.022Z,101385
2023-05-21T10:58:10.374Z,101385
2023-05-21T10:59:01.673Z,101385
2023-05-21T11:00:01.097Z,101385
2023-05-21T11:01:01.201Z,101372
2023-05-21T11:02:00.995Z,101372
2023-05-21T11:03:01.218Z,101372
2023-05-21T11:04:01.431Z,101372
2023-05-21T11:05:00.782Z,101372
2023-05-21T11:06:01.712Z,101382
2023-05-21T11:07:00.952Z,101382
2023-05-21T11:08:00.526Z,101382
2023-05-21T11:09:01.595Z,101382
2023-05-21T11:10:10.385Z,101382
2023-05-21T11:11:01.406Z,101370
2023-05-21T11:12:00.570Z,101370
2023-05-21T11:13:04.302Z,101370
2023-05-21T11:14:00.520Z,101370
2023-05-21T11:15:00.550Z,101370
2023-05-21T11:16:00.481Z,101357
2023-05-21T11:17:02.134Z,101357
2023-05-21T11:18:00.576Z,101357
2023-05-21T11:19:00.722Z,101357
2023-05-21T11:20:03.429Z,101357
2023-05-21T11:21:10.405Z,101383
2023-05-21T11:22:00.549Z,101383
2023-05-21T11:23:00.600Z,101383
2023-05-21T11:24:01.509Z,101383
2023-05-21T11:25:01.168Z,101383
2023-05-21T11:26:00.610Z,101355
2023-05-21T11:27:00.837Z,101355
2023-05-21T11:28:04.186Z,101355
2023-05-21T11:29:04.028Z,101355
2023-05-21T11:30:04.121Z,101355
2023-05-21T11:31:10.397Z,101366
2023-05-21T11:32:00.775Z,101366
2023-05-21T11:33:08.075Z,101366
2023-05-21T11:34:07.765Z,101366
2023-05-21T11:35:00.576Z,101366
2023-05-21T11:36:00.567Z,101349
2023-05-21T11:37:10.429Z,101349
2023-05-21T11:38:00.592Z,101349
2023-05-21T11:39:10.398Z,101349
2023-05-21T11:40:10.359Z,101349
2023-05-21T11:41:02.057Z,101350
2023-05-21T11:42:04.110Z,101350
2023-05-21T11:43:00.610Z,101350
2023-05-21T11:44:00.571Z,101350
2023-05-21T11:45:01.760Z,101350
2023-05-21T11:46:01.133Z,101352
2023-05-21T11:47:00.684Z,101352
2023-05-21T11:48:00.633Z,101352
2023-05-21T11:49:01.842Z,101352
2023-05-21T11:50:01.455Z,101352
2023-05-21T11:51:00.752Z,101342
2023-05-21T11:52:00.846Z,101342
2023-05-21T11:53:01.092Z,101342
2023-05-21T11:54:00.823Z,101342
2023-05-21T11:55:00.623Z,101342
2023-05-21T11:56:00.860Z,101343
2023-05-21T11:57:00.977Z,101343
2023-05-21T11:58:00.706Z,101343
2023-05-21T11:59:01.219Z,101343
2023-05-21T12:00:01.894Z,101343
2023-05-21T12:01:00.521Z,101337
2023-05-21T12:02:00.967Z,101337
2023-05-21T12:03:00.601Z,101337
2023-05-21T12:04:02.956Z,101337
2023-05-21T12:05:00.900Z,101337
2023-05-21T12:06:03.713Z,101333
2023-05-21T12:07:02.462Z,101333
2023-05-21T12:08:00.549Z,101333
2023-05-21T12:09:00.537Z,101333
2023-05-21T12:10:00.711Z,101333
2023-05-21T12:11:00.742Z,101339
2023-05-21T12:12:00.608Z,101339
2023-05-21T12:13:00.577Z,101339
2023-05-21T12:14:00.604Z,101339
2023-05-21T12:15:00.796Z,101339
2023-05-21T12:16:01.326Z,101336
2023-05-21T12:17:01.425Z,101336
2023-05-21T12:18:00.905Z,101336
2023-05-21T12:19:01.698Z,101336
2023-05-21T12:20:00.602Z,101336
2023-05-21T12:21:00.571Z,101324
2023-05-21T12:22:01.263Z,101324
2023-05-21T12:23:00.870Z,101324
2023-05-21T12:24:01.122Z,101324
2023-05-21T12:25:00.577Z,101324
2023-05-21T12:26:00.637Z,101331
2023-05-21T12:27:01.472Z,101331
2023-05-21T12:28:00.591Z,101331